sensor_id;sensor_type;location;lat;lon;timestamp;temperature;humidity
1700;DHT22;847;48.058;7.810;2023-07-31T00:01:05;17.30;99.00
1700;DHT22;847;48.058;7.810;2023-07-31T00:03:32;17.30;99.00
1700;DHT22;847;48.058;7.810;2023-07-31T00:06:00;17.40;99.00
1700;DHT22;847;48.058;7.810;2023-07-31T00:08:26;17.40;99.00
1700;DHT22;847;48.058;7.810;2023-07-31T00:10:53;17.60;99.00
1700;DHT22;847;48.058;7.810;2023-07-31T00:13:20;17.60;98.90
1700;DHT22;847;48.058;7.810;2023-07-31T00:15:47;17.60;98.90
1700;DHT22;847;48.058;7.810;2023-07-31T00:18:14;17.60;98.80
1700;DHT22;847;48.058;7.810;2023-07-31T00:20:41;17.50;99.00
1700;DHT22;847;48.058;7.810;2023-07-31T00:23:09;17.40;99.00
1700;DHT22;847;48.058;7.810;2023-07-31T00:25:36;17.40;99.00
1700;DHT22;847;48.058;7.810;2023-07-31T00:28:03;17.40;99.00
1700;DHT22;847;48.058;7.810;2023-07-31T00:30:30;17.40;99.00
1700;DHT22;847;48.058;7.810;2023-07-31T00:32:56;17.30;99.00
1700;DHT22;847;48.058;7.810;2023-07-31T00:35:23;17.20;99.00
1700;DHT22;847;48.058;7.810;2023-07-31T00:37:50;17.10;99.00
1700;DHT22;847;48.058;7.810;2023-07-31T00:40:18;17.00;99.00
1700;DHT22;847;48.058;7.810;2023-07-31T00:42:45;17.00;99.00
1700;DHT22;847;48.058;7.810;2023-07-31T00:45:11;16.90;99.00
1700;DHT22;847;48.058;7.810;2023-07-31T00:47:38;16.90;99.00
1700;DHT22;847;48.058;7.810;2023-07-31T00:50:07;16.80;99.00
1700;DHT22;847;48.058;7.810;2023-07-31T00:52:35;16.80;99.00
1700;DHT22;847;48.058;7.810;2023-07-31T00:55:02;16.80;99.00
1700;DHT22;847;48.058;7.810;2023-07-31T00:57:31;16.80;99.00
1700;DHT22;847;48.058;7.810;2023-07-31T00:59:58;16.80;99.00
1700;DHT22;847;48.058;7.810;2023-07-31T01:02:25;16.80;99.00
1700;DHT22;847;48.058;7.810;2023-07-31T01:04:52;16.90;99.00
1700;DHT22;847;48.058;7.810;2023-07-31T01:07:22;16.90;99.00
1700;DHT22;847;48.058;7.810;2023-07-31T01:09:59;17.00;99.00
1700;DHT22;847;48.058;7.810;2023-07-31T01:12:31;16.90;99.00
1700;DHT22;847;48.058;7.810;2023-07-31T01:15:05;16.80;99.00
1700;DHT22;847;48.058;7.810;2023-07-31T01:17:36;16.70;99.00
1700;DHT22;847;48.058;7.810;2023-07-31T01:20:05;16.60;99.00
1700;DHT22;847;48.058;7.810;2023-07-31T01:25:45;16.60;99.00
1700;DHT22;847;48.058;7.810;2023-07-31T01:28:15;16.60;99.00
1700;DHT22;847;48.058;7.810;2023-07-31T01:30:48;16.60;99.00
1700;DHT22;847;48.058;7.810;2023-07-31T01:33:16;16.60;99.00
1700;DHT22;847;48.058;7.810;2023-07-31T01:35:45;16.70;99.00
1700;DHT22;847;48.058;7.810;2023-07-31T01:38:13;16.70;99.00
1700;DHT22;847;48.058;7.810;2023-07-31T01:40:42;16.60;99.00
1700;DHT22;847;48.058;7.810;2023-07-31T01:43:10;16.60;99.00
1700;DHT22;847;48.058;7.810;2023-07-31T01:45:37;16.50;99.00
1700;DHT22;847;48.058;7.810;2023-07-31T01:48:04;16.50;99.00
1700;DHT22;847;48.058;7.810;2023-07-31T01:50:30;16.40;99.00
1700;DHT22;847;48.058;7.810;2023-07-31T01:52:57;16.30;99.00
1700;DHT22;847;48.058;7.810;2023-07-31T01:55:24;16.20;99.00
1700;DHT22;847;48.058;7.810;2023-07-31T01:57:51;16.30;99.00
1700;DHT22;847;48.058;7.810;2023-07-31T02:00:20;16.20;99.00
1700;DHT22;847;48.058;7.810;2023-07-31T02:02:46;16.20;99.00
1700;DHT22;847;48.058;7.810;2023-07-31T02:05:13;16.30;99.00
1700;DHT22;847;48.058;7.810;2023-07-31T02:07:40;16.30;99.00
1700;DHT22;847;48.058;7.810;2023-07-31T02:10:07;16.30;99.00
1700;DHT22;847;48.058;7.810;2023-07-31T02:12:34;16.30;99.00
1700;DHT22;847;48.058;7.810;2023-07-31T02:15:01;16.30;99.00
1700;DHT22;847;48.058;7.810;2023-07-31T02:17:29;16.30;99.00
1700;DHT22;847;48.058;7.810;2023-07-31T02:19:56;16.30;99.00
1700;DHT22;847;48.058;7.810;2023-07-31T02:22:22;16.20;99.00
1700;DHT22;847;48.058;7.810;2023-07-31T02:24:49;16.30;99.00
1700;DHT22;847;48.058;7.810;2023-07-31T02:27:16;16.20;99.00
1700;DHT22;847;48.058;7.810;2023-07-31T02:29:43;16.20;99.00
1700;DHT22;847;48.058;7.810;2023-07-31T02:32:09;16.20;98.90
1700;DHT22;847;48.058;7.810;2023-07-31T02:34:37;16.20;98.90
1700;DHT22;847;48.058;7.810;2023-07-31T02:37:05;16.30;98.90
1700;DHT22;847;48.058;7.810;2023-07-31T02:39:32;16.30;98.70
1700;DHT22;847;48.058;7.810;2023-07-31T02:42:00;16.20;99.00
1700;DHT22;847;48.058;7.810;2023-07-31T02:44:27;16.10;99.00
1700;DHT22;847;48.058;7.810;2023-07-31T02:46:54;15.80;99.00
1700;DHT22;847;48.058;7.810;2023-07-31T02:49:20;15.60;99.00
1700;DHT22;847;48.058;7.810;2023-07-31T02:51:48;15.40;99.00
1700;DHT22;847;48.058;7.810;2023-07-31T02:54:15;15.30;99.00
1700;DHT22;847;48.058;7.810;2023-07-31T02:56:42;15.30;99.00
1700;DHT22;847;48.058;7.810;2023-07-31T02:59:08;15.30;99.00
1700;DHT22;847;48.058;7.810;2023-07-31T03:01:35;15.50;99.00
1700;DHT22;847;48.058;7.810;2023-07-31T03:04:02;15.60;99.00
1700;DHT22;847;48.058;7.810;2023-07-31T03:06:29;15.70;99.00
1700;DHT22;847;48.058;7.810;2023-07-31T03:08:57;15.70;99.00
1700;DHT22;847;48.058;7.810;2023-07-31T03:11:24;15.70;99.00
1700;DHT22;847;48.058;7.810;2023-07-31T03:13:51;15.70;99.00
1700;DHT22;847;48.058;7.810;2023-07-31T03:16:17;15.70;99.00
1700;DHT22;847;48.058;7.810;2023-07-31T03:18:44;15.70;99.00
1700;DHT22;847;48.058;7.810;2023-07-31T03:21:11;15.70;99.00
1700;DHT22;847;48.058;7.810;2023-07-31T03:23:38;15.70;99.00
1700;DHT22;847;48.058;7.810;2023-07-31T03:26:07;15.70;99.00
1700;DHT22;847;48.058;7.810;2023-07-31T03:28:34;15.60;99.00
1700;DHT22;847;48.058;7.810;2023-07-31T03:31:01;15.50;99.00
1700;DHT22;847;48.058;7.810;2023-07-31T03:33:28;15.60;99.00
1700;DHT22;847;48.058;7.810;2023-07-31T03:35:55;15.70;99.00
1700;DHT22;847;48.058;7.810;2023-07-31T03:38:21;15.70;99.00
1700;DHT22;847;48.058;7.810;2023-07-31T03:40:48;15.60;99.00
1700;DHT22;847;48.058;7.810;2023-07-31T03:43:16;15.60;99.00
1700;DHT22;847;48.058;7.810;2023-07-31T03:45:43;15.60;99.00
1700;DHT22;847;48.058;7.810;2023-07-31T03:48:10;15.70;99.00
1700;DHT22;847;48.058;7.810;2023-07-31T03:50:37;15.60;99.00
1700;DHT22;847;48.058;7.810;2023-07-31T03:53:03;15.60;99.00
1700;DHT22;847;48.058;7.810;2023-07-31T03:55:30;15.60;99.00
1700;DHT22;847;48.058;7.810;2023-07-31T03:57:57;15.70;99.00
1700;DHT22;847;48.058;7.810;2023-07-31T04:00:26;15.70;99.00
1700;DHT22;847;48.058;7.810;2023-07-31T04:02:52;15.70;99.00
1700;DHT22;847;48.058;7.810;2023-07-31T04:05:19;15.70;99.00
1700;DHT22;847;48.058;7.810;2023-07-31T04:07:46;15.70;99.00
1700;DHT22;847;48.058;7.810;2023-07-31T04:10:13;15.70;99.00
1700;DHT22;847;48.058;7.810;2023-07-31T04:12:39;15.60;99.00
1700;DHT22;847;48.058;7.810;2023-07-31T04:15:07;15.70;99.00
1700;DHT22;847;48.058;7.810;2023-07-31T04:17:35;15.70;99.00
1700;DHT22;847;48.058;7.810;2023-07-31T04:20:02;15.70;99.00
1700;DHT22;847;48.058;7.810;2023-07-31T04:22:28;15.70;99.00
1700;DHT22;847;48.058;7.810;2023-07-31T04:24:55;15.70;99.00
1700;DHT22;847;48.058;7.810;2023-07-31T04:27:22;15.70;99.00
1700;DHT22;847;48.058;7.810;2023-07-31T04:29:49;15.70;99.00
1700;DHT22;847;48.058;7.810;2023-07-31T04:32:16;15.70;99.00
1700;DHT22;847;48.058;7.810;2023-07-31T04:34:44;15.80;99.00
1700;DHT22;847;48.058;7.810;2023-07-31T04:37:11;15.70;99.00
1700;DHT22;847;48.058;7.810;2023-07-31T04:39:38;15.80;99.00
1700;DHT22;847;48.058;7.810;2023-07-31T04:42:05;15.80;99.00
1700;DHT22;847;48.058;7.810;2023-07-31T04:44:32;15.80;99.00
1700;DHT22;847;48.058;7.810;2023-07-31T04:46:59;15.70;99.00
1700;DHT22;847;48.058;7.810;2023-07-31T04:49:26;15.70;99.00
1700;DHT22;847;48.058;7.810;2023-07-31T04:51:54;15.70;99.00
1700;DHT22;847;48.058;7.810;2023-07-31T04:54:20;15.80;99.00
1700;DHT22;847;48.058;7.810;2023-07-31T04:56:47;15.80;99.00
1700;DHT22;847;48.058;7.810;2023-07-31T04:59:14;15.80;99.00
1700;DHT22;847;48.058;7.810;2023-07-31T05:01:41;15.80;99.00
1700;DHT22;847;48.058;7.810;2023-07-31T05:04:08;15.90;99.00
1700;DHT22;847;48.058;7.810;2023-07-31T05:06:35;15.90;99.00
1700;DHT22;847;48.058;7.810;2023-07-31T05:09:03;15.90;99.00
1700;DHT22;847;48.058;7.810;2023-07-31T05:11:29;15.90;99.00
1700;DHT22;847;48.058;7.810;2023-07-31T05:13:56;15.90;99.00
1700;DHT22;847;48.058;7.810;2023-07-31T05:16:23;16.00;99.00
1700;DHT22;847;48.058;7.810;2023-07-31T05:18:50;16.00;99.00
1700;DHT22;847;48.058;7.810;2023-07-31T05:21:16;16.00;99.00
1700;DHT22;847;48.058;7.810;2023-07-31T05:23:43;16.10;99.00
1700;DHT22;847;48.058;7.810;2023-07-31T05:26:11;16.20;99.00
1700;DHT22;847;48.058;7.810;2023-07-31T05:28:38;16.30;99.00
1700;DHT22;847;48.058;7.810;2023-07-31T05:31:05;16.40;99.00
1700;DHT22;847;48.058;7.810;2023-07-31T05:33:32;16.50;99.00
1700;DHT22;847;48.058;7.810;2023-07-31T05:35:59;16.60;97.90
1700;DHT22;847;48.058;7.810;2023-07-31T05:38:26;16.60;97.10
1700;DHT22;847;48.058;7.810;2023-07-31T05:40:52;16.70;96.80
1700;DHT22;847;48.058;7.810;2023-07-31T05:43:20;16.70;96.20
1700;DHT22;847;48.058;7.810;2023-07-31T05:45:47;16.80;96.40
1700;DHT22;847;48.058;7.810;2023-07-31T05:48:14;16.80;96.40
1700;DHT22;847;48.058;7.810;2023-07-31T05:50:41;16.90;96.50
1700;DHT22;847;48.058;7.810;2023-07-31T05:53:09;16.90;96.00
1700;DHT22;847;48.058;7.810;2023-07-31T05:55:36;16.90;96.00
1700;DHT22;847;48.058;7.810;2023-07-31T05:58:02;16.90;95.60
1700;DHT22;847;48.058;7.810;2023-07-31T06:00:31;16.90;95.40
1700;DHT22;847;48.058;7.810;2023-07-31T06:02:57;17.00;95.60
1700;DHT22;847;48.058;7.810;2023-07-31T06:05:24;17.00;95.30
1700;DHT22;847;48.058;7.810;2023-07-31T06:07:51;17.10;95.40
1700;DHT22;847;48.058;7.810;2023-07-31T06:10:18;17.10;95.40
1700;DHT22;847;48.058;7.810;2023-07-31T06:12:45;17.20;95.20
1700;DHT22;847;48.058;7.810;2023-07-31T06:15:11;17.20;94.60
1700;DHT22;847;48.058;7.810;2023-07-31T06:17:39;17.30;94.60
1700;DHT22;847;48.058;7.810;2023-07-31T06:20:08;17.40;94.60
1700;DHT22;847;48.058;7.810;2023-07-31T06:22:35;17.40;94.10
1700;DHT22;847;48.058;7.810;2023-07-31T06:25:02;17.40;93.70
1700;DHT22;847;48.058;7.810;2023-07-31T06:27:29;17.40;93.90
1700;DHT22;847;48.058;7.810;2023-07-31T06:29:56;17.40;93.60
1700;DHT22;847;48.058;7.810;2023-07-31T06:32:23;17.50;93.50
1700;DHT22;847;48.058;7.810;2023-07-31T06:34:51;17.50;93.30
1700;DHT22;847;48.058;7.810;2023-07-31T06:37:19;17.60;92.70
1700;DHT22;847;48.058;7.810;2023-07-31T06:39:46;17.60;93.10
1700;DHT22;847;48.058;7.810;2023-07-31T06:42:13;17.60;92.90
1700;DHT22;847;48.058;7.810;2023-07-31T06:44:39;17.60;92.70
1700;DHT22;847;48.058;7.810;2023-07-31T06:47:09;17.70;92.60
1700;DHT22;847;48.058;7.810;2023-07-31T06:49:36;17.70;92.80
1700;DHT22;847;48.058;7.810;2023-07-31T06:52:04;17.70;92.40
1700;DHT22;847;48.058;7.810;2023-07-31T06:54:31;17.80;92.90
1700;DHT22;847;48.058;7.810;2023-07-31T06:56:58;17.80;91.70
1700;DHT22;847;48.058;7.810;2023-07-31T06:59:25;17.80;91.70
1700;DHT22;847;48.058;7.810;2023-07-31T07:01:51;17.90;91.20
1700;DHT22;847;48.058;7.810;2023-07-31T07:04:18;17.90;91.10
1700;DHT22;847;48.058;7.810;2023-07-31T07:06:45;18.00;91.50
1700;DHT22;847;48.058;7.810;2023-07-31T07:09:13;18.00;91.70
1700;DHT22;847;48.058;7.810;2023-07-31T07:11:40;18.00;91.70
1700;DHT22;847;48.058;7.810;2023-07-31T07:14:06;18.00;91.30
1700;DHT22;847;48.058;7.810;2023-07-31T07:16:33;18.00;91.30
1700;DHT22;847;48.058;7.810;2023-07-31T07:19:00;18.10;91.00
1700;DHT22;847;48.058;7.810;2023-07-31T07:21:27;18.20;91.10
1700;DHT22;847;48.058;7.810;2023-07-31T07:23:53;18.20;91.30
1700;DHT22;847;48.058;7.810;2023-07-31T07:26:21;18.30;91.00
1700;DHT22;847;48.058;7.810;2023-07-31T07:28:48;18.30;90.40
1700;DHT22;847;48.058;7.810;2023-07-31T07:31:15;18.40;88.80
1700;DHT22;847;48.058;7.810;2023-07-31T07:33:42;18.50;89.10
1700;DHT22;847;48.058;7.810;2023-07-31T07:36:09;18.50;89.30
1700;DHT22;847;48.058;7.810;2023-07-31T07:38:35;18.50;89.50
1700;DHT22;847;48.058;7.810;2023-07-31T07:41:04;18.60;89.40
1700;DHT22;847;48.058;7.810;2023-07-31T07:43:32;18.70;89.00
1700;DHT22;847;48.058;7.810;2023-07-31T07:45:59;18.70;88.80
1700;DHT22;847;48.058;7.810;2023-07-31T07:48:26;18.80;89.00
1700;DHT22;847;48.058;7.810;2023-07-31T07:50:53;18.80;88.90
1700;DHT22;847;48.058;7.810;2023-07-31T07:53:20;18.80;88.30
1700;DHT22;847;48.058;7.810;2023-07-31T07:55:46;18.80;88.10
1700;DHT22;847;48.058;7.810;2023-07-31T07:58:13;18.90;88.10
1700;DHT22;847;48.058;7.810;2023-07-31T08:00:41;19.00;88.10
1700;DHT22;847;48.058;7.810;2023-07-31T08:03:08;19.10;87.80
1700;DHT22;847;48.058;7.810;2023-07-31T08:05:35;19.10;87.60
1700;DHT22;847;48.058;7.810;2023-07-31T08:08:01;19.10;86.80
1700;DHT22;847;48.058;7.810;2023-07-31T08:10:28;19.10;86.80
1700;DHT22;847;48.058;7.810;2023-07-31T08:12:55;19.10;87.40
1700;DHT22;847;48.058;7.810;2023-07-31T08:15:22;19.10;87.80
1700;DHT22;847;48.058;7.810;2023-07-31T08:17:50;19.10;87.60
1700;DHT22;847;48.058;7.810;2023-07-31T08:20:17;19.20;87.20
1700;DHT22;847;48.058;7.810;2023-07-31T08:22:44;19.30;87.80
1700;DHT22;847;48.058;7.810;2023-07-31T08:25:10;19.30;87.10
1700;DHT22;847;48.058;7.810;2023-07-31T08:27:37;19.40;87.00
1700;DHT22;847;48.058;7.810;2023-07-31T08:30:05;19.50;86.30
1700;DHT22;847;48.058;7.810;2023-07-31T08:32:32;19.50;86.50
1700;DHT22;847;48.058;7.810;2023-07-31T08:35:00;19.60;86.20
1700;DHT22;847;48.058;7.810;2023-07-31T08:37:28;19.60;85.70
1700;DHT22;847;48.058;7.810;2023-07-31T08:39:54;19.70;85.50
1700;DHT22;847;48.058;7.810;2023-07-31T08:42:21;19.70;84.80
1700;DHT22;847;48.058;7.810;2023-07-31T08:44:48;19.70;84.20
1700;DHT22;847;48.058;7.810;2023-07-31T08:47:16;19.80;84.40
1700;DHT22;847;48.058;7.810;2023-07-31T08:49:43;19.90;83.60
1700;DHT22;847;48.058;7.810;2023-07-31T08:52:14;20.00;84.10
1700;DHT22;847;48.058;7.810;2023-07-31T08:54:41;20.10;84.30
1700;DHT22;847;48.058;7.810;2023-07-31T08:57:07;20.20;83.90
1700;DHT22;847;48.058;7.810;2023-07-31T08:59:35;20.20;83.30
1700;DHT22;847;48.058;7.810;2023-07-31T09:02:05;20.20;83.60
1700;DHT22;847;48.058;7.810;2023-07-31T09:04:33;20.10;83.40
1700;DHT22;847;48.058;7.810;2023-07-31T09:07:01;20.10;82.80
1700;DHT22;847;48.058;7.810;2023-07-31T09:09:31;20.30;82.50
1700;DHT22;847;48.058;7.810;2023-07-31T09:11:58;20.30;82.80
1700;DHT22;847;48.058;7.810;2023-07-31T09:14:25;20.20;83.30
1700;DHT22;847;48.058;7.810;2023-07-31T09:16:53;20.30;82.30
1700;DHT22;847;48.058;7.810;2023-07-31T09:19:26;20.30;83.20
1700;DHT22;847;48.058;7.810;2023-07-31T09:21:53;20.30;83.80
1700;DHT22;847;48.058;7.810;2023-07-31T09:24:27;20.40;83.30
1700;DHT22;847;48.058;7.810;2023-07-31T09:26:56;20.50;83.30
1700;DHT22;847;48.058;7.810;2023-07-31T09:29:24;20.60;82.70
1700;DHT22;847;48.058;7.810;2023-07-31T09:31:52;20.60;82.80
1700;DHT22;847;48.058;7.810;2023-07-31T09:34:19;20.70;83.00
1700;DHT22;847;48.058;7.810;2023-07-31T09:36:48;20.80;81.50
1700;DHT22;847;48.058;7.810;2023-07-31T09:39:16;20.80;81.70
1700;DHT22;847;48.058;7.810;2023-07-31T09:41:55;20.90;80.80
1700;DHT22;847;48.058;7.810;2023-07-31T09:44:21;20.90;80.30
1700;DHT22;847;48.058;7.810;2023-07-31T09:47:03;20.90;80.60
1700;DHT22;847;48.058;7.810;2023-07-31T09:49:30;20.90;81.10
1700;DHT22;847;48.058;7.810;2023-07-31T09:51:57;20.90;80.50
1700;DHT22;847;48.058;7.810;2023-07-31T09:54:24;20.90;80.80
1700;DHT22;847;48.058;7.810;2023-07-31T09:56:52;21.00;80.50
1700;DHT22;847;48.058;7.810;2023-07-31T09:59:21;20.90;80.70
1700;DHT22;847;48.058;7.810;2023-07-31T10:01:49;21.00;80.30
1700;DHT22;847;48.058;7.810;2023-07-31T10:04:17;21.00;80.80
1700;DHT22;847;48.058;7.810;2023-07-31T10:06:46;21.10;81.40
1700;DHT22;847;48.058;7.810;2023-07-31T10:09:16;21.10;81.60
1700;DHT22;847;48.058;7.810;2023-07-31T10:11:47;21.20;81.30
1700;DHT22;847;48.058;7.810;2023-07-31T10:14:17;21.20;80.70
1700;DHT22;847;48.058;7.810;2023-07-31T10:16:47;21.30;81.00
1700;DHT22;847;48.058;7.810;2023-07-31T10:19:14;21.40;81.50
1700;DHT22;847;48.058;7.810;2023-07-31T10:21:42;21.50;80.60
1700;DHT22;847;48.058;7.810;2023-07-31T10:24:09;21.60;79.50
1700;DHT22;847;48.058;7.810;2023-07-31T10:26:38;21.60;80.20
1700;DHT22;847;48.058;7.810;2023-07-31T10:29:05;21.70;78.70
1700;DHT22;847;48.058;7.810;2023-07-31T10:31:34;21.70;79.10
1700;DHT22;847;48.058;7.810;2023-07-31T10:34:03;21.70;79.40
1700;DHT22;847;48.058;7.810;2023-07-31T10:36:30;21.70;79.70
1700;DHT22;847;48.058;7.810;2023-07-31T10:38:57;21.80;79.80
1700;DHT22;847;48.058;7.810;2023-07-31T10:41:29;22.00;80.50
1700;DHT22;847;48.058;7.810;2023-07-31T10:43:57;22.00;79.30
1700;DHT22;847;48.058;7.810;2023-07-31T10:46:24;22.20;80.40
1700;DHT22;847;48.058;7.810;2023-07-31T10:48:57;22.20;77.00
1700;DHT22;847;48.058;7.810;2023-07-31T10:51:32;22.10;78.80
1700;DHT22;847;48.058;7.810;2023-07-31T10:54:11;22.10;76.70
1700;DHT22;847;48.058;7.810;2023-07-31T10:56:38;22.10;76.90
1700;DHT22;847;48.058;7.810;2023-07-31T10:59:05;22.30;77.20
1700;DHT22;847;48.058;7.810;2023-07-31T11:01:51;22.60;76.80
1700;DHT22;847;48.058;7.810;2023-07-31T11:04:22;23.00;76.70
1700;DHT22;847;48.058;7.810;2023-07-31T11:06:57;23.00;75.60
1700;DHT22;847;48.058;7.810;2023-07-31T11:09:27;23.00;74.30
1700;DHT22;847;48.058;7.810;2023-07-31T11:11:55;23.00;74.80
1700;DHT22;847;48.058;7.810;2023-07-31T11:14:22;22.90;75.30
1700;DHT22;847;48.058;7.810;2023-07-31T11:16:50;22.80;76.50
1700;DHT22;847;48.058;7.810;2023-07-31T11:19:21;22.70;75.80
1700;DHT22;847;48.058;7.810;2023-07-31T11:21:49;22.70;76.60
1700;DHT22;847;48.058;7.810;2023-07-31T11:24:17;22.70;75.10
1700;DHT22;847;48.058;7.810;2023-07-31T11:26:49;22.70;76.80
1700;DHT22;847;48.058;7.810;2023-07-31T11:29:16;22.70;76.80
1700;DHT22;847;48.058;7.810;2023-07-31T11:31:43;22.70;78.20
1700;DHT22;847;48.058;7.810;2023-07-31T11:34:09;22.80;78.10
1700;DHT22;847;48.058;7.810;2023-07-31T11:36:36;22.80;77.90
1700;DHT22;847;48.058;7.810;2023-07-31T11:39:07;22.80;78.30
1700;DHT22;847;48.058;7.810;2023-07-31T11:41:35;23.00;77.70
1700;DHT22;847;48.058;7.810;2023-07-31T11:44:02;22.90;76.10
1700;DHT22;847;48.058;7.810;2023-07-31T11:46:30;22.90;77.30
1700;DHT22;847;48.058;7.810;2023-07-31T11:48:59;22.90;76.20
1700;DHT22;847;48.058;7.810;2023-07-31T11:51:27;22.90;76.70
1700;DHT22;847;48.058;7.810;2023-07-31T11:54:32;22.90;77.20
1700;DHT22;847;48.058;7.810;2023-07-31T11:57:00;22.80;77.90
1700;DHT22;847;48.058;7.810;2023-07-31T11:59:27;22.90;78.10
1700;DHT22;847;48.058;7.810;2023-07-31T12:01:54;22.90;78.10
1700;DHT22;847;48.058;7.810;2023-07-31T12:04:21;23.20;78.40
1700;DHT22;847;48.058;7.810;2023-07-31T12:06:48;23.50;78.30
1700;DHT22;847;48.058;7.810;2023-07-31T12:09:15;23.70;77.70
1700;DHT22;847;48.058;7.810;2023-07-31T12:11:43;23.90;77.30
1700;DHT22;847;48.058;7.810;2023-07-31T12:14:20;24.00;75.90
1700;DHT22;847;48.058;7.810;2023-07-31T12:16:47;24.10;75.90
1700;DHT22;847;48.058;7.810;2023-07-31T12:19:14;24.10;75.00
1700;DHT22;847;48.058;7.810;2023-07-31T12:21:41;24.30;74.50
1700;DHT22;847;48.058;7.810;2023-07-31T12:24:07;24.40;74.80
1700;DHT22;847;48.058;7.810;2023-07-31T12:26:34;24.50;74.10
1700;DHT22;847;48.058;7.810;2023-07-31T12:29:01;24.60;74.30
1700;DHT22;847;48.058;7.810;2023-07-31T12:31:29;24.50;74.10
1700;DHT22;847;48.058;7.810;2023-07-31T12:34:00;24.60;74.10
1700;DHT22;847;48.058;7.810;2023-07-31T12:36:28;24.70;74.30
1700;DHT22;847;48.058;7.810;2023-07-31T12:38:56;24.70;74.90
1700;DHT22;847;48.058;7.810;2023-07-31T12:41:24;24.80;74.10
1700;DHT22;847;48.058;7.810;2023-07-31T12:43:51;24.70;73.70
1700;DHT22;847;48.058;7.810;2023-07-31T12:46:17;24.70;74.00
1700;DHT22;847;48.058;7.810;2023-07-31T12:48:46;24.80;74.70
1700;DHT22;847;48.058;7.810;2023-07-31T12:51:12;25.00;74.60
1700;DHT22;847;48.058;7.810;2023-07-31T12:53:39;25.20;73.50
1700;DHT22;847;48.058;7.810;2023-07-31T12:56:06;25.30;70.30
1700;DHT22;847;48.058;7.810;2023-07-31T12:58:33;25.30;73.30
1700;DHT22;847;48.058;7.810;2023-07-31T13:00:59;25.20;72.30
1700;DHT22;847;48.058;7.810;2023-07-31T13:03:27;25.20;72.80
1700;DHT22;847;48.058;7.810;2023-07-31T13:05:55;25.40;71.50
1700;DHT22;847;48.058;7.810;2023-07-31T13:08:22;25.40;70.90
1700;DHT22;847;48.058;7.810;2023-07-31T13:10:48;25.40;71.70
1700;DHT22;847;48.058;7.810;2023-07-31T13:13:15;25.40;71.20
1700;DHT22;847;48.058;7.810;2023-07-31T13:15:43;25.40;71.40
1700;DHT22;847;48.058;7.810;2023-07-31T13:18:10;25.40;71.50
1700;DHT22;847;48.058;7.810;2023-07-31T13:20:36;25.40;72.40
1700;DHT22;847;48.058;7.810;2023-07-31T13:23:05;25.30;71.40
1700;DHT22;847;48.058;7.810;2023-07-31T13:25:31;25.40;72.00
1700;DHT22;847;48.058;7.810;2023-07-31T13:27:58;25.40;72.40
1700;DHT22;847;48.058;7.810;2023-07-31T13:30:25;25.50;71.70
1700;DHT22;847;48.058;7.810;2023-07-31T13:32:52;25.50;71.30
1700;DHT22;847;48.058;7.810;2023-07-31T13:35:19;25.50;70.60
1700;DHT22;847;48.058;7.810;2023-07-31T13:37:46;25.40;71.40
1700;DHT22;847;48.058;7.810;2023-07-31T13:40:14;25.40;70.60
1700;DHT22;847;48.058;7.810;2023-07-31T13:42:40;25.50;71.20
1700;DHT22;847;48.058;7.810;2023-07-31T13:45:08;25.50;71.40
1700;DHT22;847;48.058;7.810;2023-07-31T13:47:35;25.50;71.00
1700;DHT22;847;48.058;7.810;2023-07-31T13:50:02;25.60;71.10
1700;DHT22;847;48.058;7.810;2023-07-31T13:52:29;25.70;71.10
1700;DHT22;847;48.058;7.810;2023-07-31T13:54:56;25.60;70.30
1700;DHT22;847;48.058;7.810;2023-07-31T13:57:24;25.60;70.30
1700;DHT22;847;48.058;7.810;2023-07-31T13:59:51;25.60;69.70
1700;DHT22;847;48.058;7.810;2023-07-31T14:02:17;25.60;70.20
1700;DHT22;847;48.058;7.810;2023-07-31T14:04:44;25.60;70.60
1700;DHT22;847;48.058;7.810;2023-07-31T14:07:11;25.60;70.30
1700;DHT22;847;48.058;7.810;2023-07-31T14:09:38;25.60;70.90
1700;DHT22;847;48.058;7.810;2023-07-31T14:12:05;25.60;71.60
1700;DHT22;847;48.058;7.810;2023-07-31T14:14:33;25.50;71.20
1700;DHT22;847;48.058;7.810;2023-07-31T14:17:01;25.60;71.80
1700;DHT22;847;48.058;7.810;2023-07-31T14:19:28;25.60;71.80
1700;DHT22;847;48.058;7.810;2023-07-31T14:21:55;25.60;71.40
1700;DHT22;847;48.058;7.810;2023-07-31T14:24:21;25.60;71.10
1700;DHT22;847;48.058;7.810;2023-07-31T14:26:48;25.50;70.60
1700;DHT22;847;48.058;7.810;2023-07-31T14:29:15;25.40;70.40
1700;DHT22;847;48.058;7.810;2023-07-31T14:31:43;25.40;69.90
1700;DHT22;847;48.058;7.810;2023-07-31T14:34:10;25.40;70.40
1700;DHT22;847;48.058;7.810;2023-07-31T14:36:36;25.40;70.00
1700;DHT22;847;48.058;7.810;2023-07-31T14:39:03;25.30;69.10
1700;DHT22;847;48.058;7.810;2023-07-31T14:41:30;25.40;70.00
1700;DHT22;847;48.058;7.810;2023-07-31T14:43:57;25.40;70.40
1700;DHT22;847;48.058;7.810;2023-07-31T14:46:23;25.50;71.00
1700;DHT22;847;48.058;7.810;2023-07-31T14:48:51;25.50;70.50
1700;DHT22;847;48.058;7.810;2023-07-31T14:51:18;25.60;70.50
1700;DHT22;847;48.058;7.810;2023-07-31T14:53:45;25.60;69.80
1700;DHT22;847;48.058;7.810;2023-07-31T14:56:12;25.60;70.50
1700;DHT22;847;48.058;7.810;2023-07-31T14:58:39;25.60;71.10
1700;DHT22;847;48.058;7.810;2023-07-31T15:01:06;25.60;70.70
1700;DHT22;847;48.058;7.810;2023-07-31T15:03:35;25.50;69.50
1700;DHT22;847;48.058;7.810;2023-07-31T15:06:04;25.50;70.00
1700;DHT22;847;48.058;7.810;2023-07-31T15:08:33;25.50;70.30
1700;DHT22;847;48.058;7.810;2023-07-31T15:10:59;25.60;70.10
1700;DHT22;847;48.058;7.810;2023-07-31T15:13:26;25.50;71.00
1700;DHT22;847;48.058;7.810;2023-07-31T15:15:53;25.50;69.80
1700;DHT22;847;48.058;7.810;2023-07-31T15:18:21;25.50;70.70
1700;DHT22;847;48.058;7.810;2023-07-31T15:20:47;25.50;70.20
1700;DHT22;847;48.058;7.810;2023-07-31T15:23:16;25.60;71.10
1700;DHT22;847;48.058;7.810;2023-07-31T15:25:43;25.50;70.40
1700;DHT22;847;48.058;7.810;2023-07-31T15:28:10;25.50;70.80
1700;DHT22;847;48.058;7.810;2023-07-31T15:30:37;25.50;70.60
1700;DHT22;847;48.058;7.810;2023-07-31T15:33:04;25.60;71.20
1700;DHT22;847;48.058;7.810;2023-07-31T15:35:31;25.50;69.90
1700;DHT22;847;48.058;7.810;2023-07-31T15:37:58;25.40;70.20
1700;DHT22;847;48.058;7.810;2023-07-31T15:40:26;25.40;70.30
1700;DHT22;847;48.058;7.810;2023-07-31T15:42:53;25.40;69.10
1700;DHT22;847;48.058;7.810;2023-07-31T15:45:19;25.30;70.40
1700;DHT22;847;48.058;7.810;2023-07-31T15:47:47;25.30;69.80
1700;DHT22;847;48.058;7.810;2023-07-31T15:50:14;25.30;69.90
1700;DHT22;847;48.058;7.810;2023-07-31T15:52:41;25.30;70.50
1700;DHT22;847;48.058;7.810;2023-07-31T15:55:08;25.20;69.80
1700;DHT22;847;48.058;7.810;2023-07-31T15:57:36;25.20;70.50
1700;DHT22;847;48.058;7.810;2023-07-31T16:00:03;25.20;70.10
1700;DHT22;847;48.058;7.810;2023-07-31T16:02:30;25.10;71.50
1700;DHT22;847;48.058;7.810;2023-07-31T16:04:57;25.10;70.50
1700;DHT22;847;48.058;7.810;2023-07-31T16:07:24;24.90;70.40
1700;DHT22;847;48.058;7.810;2023-07-31T16:09:52;24.90;71.30
1700;DHT22;847;48.058;7.810;2023-07-31T16:12:19;24.90;72.50
1700;DHT22;847;48.058;7.810;2023-07-31T16:14:47;24.80;73.40
1700;DHT22;847;48.058;7.810;2023-07-31T16:17:14;24.80;72.40
1700;DHT22;847;48.058;7.810;2023-07-31T16:19:40;24.80;75.30
1700;DHT22;847;48.058;7.810;2023-07-31T16:22:07;24.80;74.80